sensor_id;sensor_type;location;lat;lon;timestamp;P1;durP1;ratioP1;P2;durP2;ratioP2
31402;SDS011;18039;52.188;21.024;2022-09-12T00:01:30;5.53;;;3.17;;
31402;SDS011;18039;52.188;21.024;2022-09-12T00:03:59;7.00;;;2.92;;
31402;SDS011;18039;52.188;21.024;2022-09-12T00:06:28;5.53;;;2.80;;
31402;SDS011;18039;52.188;21.024;2022-09-12T00:08:58;8.07;;;2.88;;
31402;SDS011;18039;52.188;21.024;2022-09-12T00:11:28;6.25;;;2.97;;
31402;SDS011;18039;52.188;21.024;2022-09-12T00:13:56;11.90;;;3.22;;
31402;SDS011;18039;52.188;21.024;2022-09-12T00:16:26;7.05;;;3.03;;
31402;SDS011;18039;52.188;21.024;2022-09-12T00:18:54;7.25;;;2.88;;
31402;SDS011;18039;52.188;21.024;2022-09-12T00:21:22;8.30;;;3.47;;
31402;SDS011;18039;52.188;21.024;2022-09-12T00:23:49;6.97;;;2.90;;
31402;SDS011;18039;52.188;21.024;2022-09-12T00:26:17;7.60;;;3.05;;
31402;SDS011;18039;52.188;21.024;2022-09-12T00:28:45;5.82;;;2.90;;
31402;SDS011;18039;52.188;21.024;2022-09-12T00:31:14;6.43;;;3.20;;
31402;SDS011;18039;52.188;21.024;2022-09-12T00:33:43;8.20;;;3.83;;
31402;SDS011;18039;52.188;21.024;2022-09-12T00:36:12;8.23;;;3.22;;
31402;SDS011;18039;52.188;21.024;2022-09-12T00:38:41;5.90;;;2.70;;
31402;SDS011;18039;52.188;21.024;2022-09-12T00:41:16;5.45;;;3.00;;
31402;SDS011;18039;52.188;21.024;2022-09-12T00:43:47;5.50;;;2.90;;
31402;SDS011;18039;52.188;21.024;2022-09-12T00:46:21;5.75;;;2.90;;
31402;SDS011;18039;52.188;21.024;2022-09-12T00:48:59;6.32;;;2.90;;
31402;SDS011;18039;52.188;21.024;2022-09-12T00:51:30;6.47;;;3.03;;
31402;SDS011;18039;52.188;21.024;2022-09-12T00:54:00;4.70;;;3.10;;
31402;SDS011;18039;52.188;21.024;2022-09-12T00:56:31;7.45;;;3.42;;
31402;SDS011;18039;52.188;21.024;2022-09-12T00:59:04;10.80;;;3.20;;
31402;SDS011;18039;52.188;21.024;2022-09-12T01:01:36;4.47;;;2.80;;
31402;SDS011;18039;52.188;21.024;2022-09-12T01:04:06;6.32;;;2.65;;
31402;SDS011;18039;52.188;21.024;2022-09-12T01:06:36;7.13;;;2.90;;
31402;SDS011;18039;52.188;21.024;2022-09-12T01:09:07;10.55;;;3.10;;
31402;SDS011;18039;52.188;21.024;2022-09-12T01:11:36;4.72;;;2.78;;
31402;SDS011;18039;52.188;21.024;2022-09-12T01:14:05;4.70;;;2.60;;
31402;SDS011;18039;52.188;21.024;2022-09-12T01:16:34;5.03;;;2.50;;
31402;SDS011;18039;52.188;21.024;2022-09-12T01:19:11;7.65;;;2.92;;
31402;SDS011;18039;52.188;21.024;2022-09-12T01:22:06;5.05;;;3.17;;
31402;SDS011;18039;52.188;21.024;2022-09-12T01:32:35;5.82;;;2.63;;
31402;SDS011;18039;52.188;21.024;2022-09-12T01:35:20;5.20;;;2.97;;
31402;SDS011;18039;52.188;21.024;2022-09-12T01:37:59;4.55;;;2.58;;
31402;SDS011;18039;52.188;21.024;2022-09-12T01:40:43;7.15;;;3.17;;
31402;SDS011;18039;52.188;21.024;2022-09-12T01:43:17;5.70;;;2.75;;
31402;SDS011;18039;52.188;21.024;2022-09-12T01:45:55;6.68;;;3.17;;
31402;SDS011;18039;52.188;21.024;2022-09-12T01:48:29;9.27;;;3.17;;
31402;SDS011;18039;52.188;21.024;2022-09-12T01:51:20;5.30;;;2.88;;
31402;SDS011;18039;52.188;21.024;2022-09-12T01:54:09;5.18;;;3.22;;
31402;SDS011;18039;52.188;21.024;2022-09-12T01:56:41;7.93;;;3.20;;
31402;SDS011;18039;52.188;21.024;2022-09-12T01:59:19;4.47;;;2.72;;
31402;SDS011;18039;52.188;21.024;2022-09-12T02:01:52;5.05;;;2.95;;
31402;SDS011;18039;52.188;21.024;2022-09-12T02:04:31;5.30;;;2.58;;
31402;SDS011;18039;52.188;21.024;2022-09-12T02:09:43;9.57;;;3.15;;
31402;SDS011;18039;52.188;21.024;2022-09-12T02:12:14;6.07;;;3.10;;
31402;SDS011;18039;52.188;21.024;2022-09-12T02:14:50;6.47;;;2.80;;
31402;SDS011;18039;52.188;21.024;2022-09-12T02:17:22;8.98;;;3.17;;
31402;SDS011;18039;52.188;21.024;2022-09-12T02:19:54;5.90;;;2.97;;
31402;SDS011;18039;52.188;21.024;2022-09-12T02:22:26;4.70;;;2.58;;
31402;SDS011;18039;52.188;21.024;2022-09-12T02:24:57;4.65;;;2.80;;
31402;SDS011;18039;52.188;21.024;2022-09-12T02:27:31;3.92;;;2.88;;
31402;SDS011;18039;52.188;21.024;2022-09-12T02:30:04;6.72;;;2.85;;
31402;SDS011;18039;52.188;21.024;2022-09-12T02:32:36;6.80;;;3.00;;
31402;SDS011;18039;52.188;21.024;2022-09-12T02:35:27;7.25;;;3.20;;
31402;SDS011;18039;52.188;21.024;2022-09-12T02:38:08;6.28;;;2.85;;
31402;SDS011;18039;52.188;21.024;2022-09-12T02:40:40;5.65;;;2.58;;
31402;SDS011;18039;52.188;21.024;2022-09-12T02:43:07;7.00;;;2.65;;
31402;SDS011;18039;52.188;21.024;2022-09-12T02:45:34;6.03;;;2.63;;
31402;SDS011;18039;52.188;21.024;2022-09-12T02:48:10;6.20;;;3.22;;
31402;SDS011;18039;52.188;21.024;2022-09-12T02:50:40;4.63;;;2.25;;
31402;SDS011;18039;52.188;21.024;2022-09-12T02:53:08;8.35;;;3.20;;
31402;SDS011;18039;52.188;21.024;2022-09-12T02:55:37;5.60;;;2.90;;
31402;SDS011;18039;52.188;21.024;2022-09-12T02:58:07;5.15;;;2.30;;
31402;SDS011;18039;52.188;21.024;2022-09-12T03:00:42;6.15;;;2.97;;
31402;SDS011;18039;52.188;21.024;2022-09-12T03:06:32;3.95;;;2.53;;
31402;SDS011;18039;52.188;21.024;2022-09-12T03:12:07;8.68;;;2.75;;
31402;SDS011;18039;52.188;21.024;2022-09-12T03:20:14;8.25;;;3.08;;
31402;SDS011;18039;52.188;21.024;2022-09-12T03:22:57;7.70;;;2.90;;
31402;SDS011;18039;52.188;21.024;2022-09-12T03:25:31;11.38;;;3.30;;
31402;SDS011;18039;52.188;21.024;2022-09-12T03:28:05;6.78;;;3.20;;
31402;SDS011;18039;52.188;21.024;2022-09-12T03:30:39;7.20;;;3.10;;
31402;SDS011;18039;52.188;21.024;2022-09-12T03:33:11;4.78;;;2.85;;
31402;SDS011;18039;52.188;21.024;2022-09-12T03:35:40;7.57;;;2.80;;
31402;SDS011;18039;52.188;21.024;2022-09-12T03:38:07;6.90;;;3.22;;
31402;SDS011;18039;52.188;21.024;2022-09-12T03:40:36;9.93;;;3.25;;
31402;SDS011;18039;52.188;21.024;2022-09-12T03:43:05;6.35;;;3.58;;
31402;SDS011;18039;52.188;21.024;2022-09-12T03:45:34;5.32;;;3.03;;
31402;SDS011;18039;52.188;21.024;2022-09-12T03:48:02;10.55;;;3.45;;
31402;SDS011;18039;52.188;21.024;2022-09-12T03:50:31;8.68;;;2.90;;
31402;SDS011;18039;52.188;21.024;2022-09-12T03:52:59;5.90;;;3.17;;
31402;SDS011;18039;52.188;21.024;2022-09-12T03:55:26;7.38;;;3.40;;
31402;SDS011;18039;52.188;21.024;2022-09-12T03:57:54;7.13;;;3.50;;
31402;SDS011;18039;52.188;21.024;2022-09-12T04:00:21;7.13;;;3.80;;
31402;SDS011;18039;52.188;21.024;2022-09-12T04:02:52;10.95;;;4.50;;
31402;SDS011;18039;52.188;21.024;2022-09-12T04:05:19;12.30;;;4.53;;
31402;SDS011;18039;52.188;21.024;2022-09-12T04:07:46;10.18;;;4.70;;
31402;SDS011;18039;52.188;21.024;2022-09-12T04:10:13;10.00;;;4.25;;
31402;SDS011;18039;52.188;21.024;2022-09-12T04:12:42;8.45;;;4.90;;
31402;SDS011;18039;52.188;21.024;2022-09-12T04:15:10;8.85;;;4.72;;
31402;SDS011;18039;52.188;21.024;2022-09-12T04:17:37;7.28;;;5.35;;
31402;SDS011;18039;52.188;21.024;2022-09-12T04:20:04;9.50;;;5.35;;
31402;SDS011;18039;52.188;21.024;2022-09-12T04:22:32;10.45;;;5.15;;
31402;SDS011;18039;52.188;21.024;2022-09-12T04:24:59;8.95;;;5.18;;
31402;SDS011;18039;52.188;21.024;2022-09-12T04:27:26;10.00;;;5.75;;
31402;SDS011;18039;52.188;21.024;2022-09-12T04:29:54;9.13;;;5.30;;
31402;SDS011;18039;52.188;21.024;2022-09-12T04:32:21;9.30;;;5.63;;
31402;SDS011;18039;52.188;21.024;2022-09-12T04:34:49;10.82;;;5.47;;
31402;SDS011;18039;52.188;21.024;2022-09-12T04:37:17;13.57;;;5.30;;
31402;SDS011;18039;52.188;21.024;2022-09-12T04:39:45;12.73;;;5.55;;
31402;SDS011;18039;52.188;21.024;2022-09-12T04:42:15;10.05;;;5.72;;
31402;SDS011;18039;52.188;21.024;2022-09-12T04:44:42;10.95;;;5.43;;
31402;SDS011;18039;52.188;21.024;2022-09-12T04:47:09;11.82;;;6.18;;
31402;SDS011;18039;52.188;21.024;2022-09-12T04:49:36;8.88;;;5.65;;
31402;SDS011;18039;52.188;21.024;2022-09-12T04:52:03;11.05;;;5.90;;
31402;SDS011;18039;52.188;21.024;2022-09-12T04:54:30;9.30;;;6.03;;
31402;SDS011;18039;52.188;21.024;2022-09-12T04:56:57;9.18;;;5.93;;
31402;SDS011;18039;52.188;21.024;2022-09-12T04:59:25;12.75;;;6.00;;
31402;SDS011;18039;52.188;21.024;2022-09-12T05:01:52;10.13;;;6.13;;
31402;SDS011;18039;52.188;21.024;2022-09-12T05:04:19;8.38;;;6.20;;
31402;SDS011;18039;52.188;21.024;2022-09-12T05:06:47;13.48;;;5.95;;
31402;SDS011;18039;52.188;21.024;2022-09-12T05:09:14;11.13;;;6.05;;
31402;SDS011;18039;52.188;21.024;2022-09-12T05:11:42;13.70;;;5.70;;
31402;SDS011;18039;52.188;21.024;2022-09-12T05:14:31;9.65;;;6.22;;
31402;SDS011;18039;52.188;21.024;2022-09-12T05:16:59;9.88;;;6.10;;
31402;SDS011;18039;52.188;21.024;2022-09-12T05:19:28;11.77;;;6.18;;
31402;SDS011;18039;52.188;21.024;2022-09-12T05:21:56;12.30;;;7.13;;
31402;SDS011;18039;52.188;21.024;2022-09-12T05:24:24;11.13;;;7.00;;
31402;SDS011;18039;52.188;21.024;2022-09-12T05:26:51;11.40;;;7.03;;
31402;SDS011;18039;52.188;21.024;2022-09-12T05:29:18;13.75;;;6.65;;
31402;SDS011;18039;52.188;21.024;2022-09-12T05:31:45;13.82;;;7.10;;
31402;SDS011;18039;52.188;21.024;2022-09-12T05:34:15;11.35;;;7.20;;
31402;SDS011;18039;52.188;21.024;2022-09-12T05:36:42;8.68;;;6.45;;
31402;SDS011;18039;52.188;21.024;2022-09-12T05:39:09;11.30;;;6.40;;
31402;SDS011;18039;52.188;21.024;2022-09-12T05:41:36;14.50;;;7.10;;
31402;SDS011;18039;52.188;21.024;2022-09-12T05:44:04;13.50;;;7.28;;
31402;SDS011;18039;52.188;21.024;2022-09-12T05:46:37;8.82;;;6.47;;
31402;SDS011;18039;52.188;21.024;2022-09-12T05:49:07;19.35;;;6.70;;
31402;SDS011;18039;52.188;21.024;2022-09-12T05:51:36;14.35;;;6.80;;
31402;SDS011;18039;52.188;21.024;2022-09-12T05:54:08;9.73;;;6.25;;
31402;SDS011;18039;52.188;21.024;2022-09-12T05:56:37;8.93;;;6.53;;
31402;SDS011;18039;52.188;21.024;2022-09-12T05:59:07;10.95;;;6.50;;
31402;SDS011;18039;52.188;21.024;2022-09-12T06:01:38;13.43;;;6.53;;
31402;SDS011;18039;52.188;21.024;2022-09-12T06:04:06;9.90;;;6.10;;
31402;SDS011;18039;52.188;21.024;2022-09-12T06:06:34;10.57;;;6.10;;
31402;SDS011;18039;52.188;21.024;2022-09-12T06:09:05;9.98;;;6.57;;
31402;SDS011;18039;52.188;21.024;2022-09-12T06:11:33;10.05;;;5.97;;
31402;SDS011;18039;52.188;21.024;2022-09-12T06:14:02;10.45;;;6.35;;
31402;SDS011;18039;52.188;21.024;2022-09-12T06:16:31;10.70;;;6.28;;
31402;SDS011;18039;52.188;21.024;2022-09-12T06:19:00;7.75;;;5.25;;
31402;SDS011;18039;52.188;21.024;2022-09-12T06:21:30;12.82;;;6.63;;
31402;SDS011;18039;52.188;21.024;2022-09-12T06:23:57;9.68;;;6.70;;
31402;SDS011;18039;52.188;21.024;2022-09-12T06:26:24;12.45;;;6.60;;
31402;SDS011;18039;52.188;21.024;2022-09-12T06:28:53;10.15;;;6.35;;
31402;SDS011;18039;52.188;21.024;2022-09-12T06:31:25;10.27;;;6.38;;
31402;SDS011;18039;52.188;21.024;2022-09-12T06:33:55;8.80;;;5.82;;
31402;SDS011;18039;52.188;21.024;2022-09-12T06:36:26;15.32;;;7.47;;
31402;SDS011;18039;52.188;21.024;2022-09-12T06:38:58;19.02;;;6.20;;
31402;SDS011;18039;52.188;21.024;2022-09-12T06:41:28;10.18;;;6.30;;
31402;SDS011;18039;52.188;21.024;2022-09-12T06:43:57;17.30;;;6.55;;
31402;SDS011;18039;52.188;21.024;2022-09-12T06:46:25;10.52;;;6.80;;
31402;SDS011;18039;52.188;21.024;2022-09-12T06:48:55;9.55;;;6.50;;
31402;SDS011;18039;52.188;21.024;2022-09-12T06:51:22;9.20;;;5.40;;
31402;SDS011;18039;52.188;21.024;2022-09-12T06:53:50;9.60;;;6.13;;
31402;SDS011;18039;52.188;21.024;2022-09-12T06:56:18;9.60;;;6.40;;
31402;SDS011;18039;52.188;21.024;2022-09-12T07:03:52;14.93;;;7.40;;
31402;SDS011;18039;52.188;21.024;2022-09-12T07:06:22;10.05;;;6.60;;
31402;SDS011;18039;52.188;21.024;2022-09-12T07:08:52;11.57;;;7.15;;
31402;SDS011;18039;52.188;21.024;2022-09-12T07:11:21;12.90;;;7.07;;
31402;SDS011;18039;52.188;21.024;2022-09-12T07:13:50;15.40;;;6.78;;
31402;SDS011;18039;52.188;21.024;2022-09-12T07:16:22;10.77;;;6.47;;
31402;SDS011;18039;52.188;21.024;2022-09-12T07:18:53;9.40;;;6.05;;
31402;SDS011;18039;52.188;21.024;2022-09-12T07:21:21;12.73;;;6.38;;
31402;SDS011;18039;52.188;21.024;2022-09-12T07:23:49;15.02;;;7.25;;
31402;SDS011;18039;52.188;21.024;2022-09-12T07:26:17;9.93;;;7.10;;
31402;SDS011;18039;52.188;21.024;2022-09-12T07:28:44;10.25;;;6.20;;
31402;SDS011;18039;52.188;21.024;2022-09-12T07:31:16;9.05;;;6.65;;
31402;SDS011;18039;52.188;21.024;2022-09-12T07:33:45;15.30;;;6.82;;
31402;SDS011;18039;52.188;21.024;2022-09-12T07:36:19;11.95;;;6.68;;
31402;SDS011;18039;52.188;21.024;2022-09-12T07:38:47;11.90;;;6.63;;
31402;SDS011;18039;52.188;21.024;2022-09-12T07:41:26;13.23;;;7.20;;
31402;SDS011;18039;52.188;21.024;2022-09-12T07:43:57;11.85;;;7.35;;
31402;SDS011;18039;52.188;21.024;2022-09-12T07:46:28;13.30;;;7.03;;
31402;SDS011;18039;52.188;21.024;2022-09-12T07:48:58;12.95;;;6.40;;
31402;SDS011;18039;52.188;21.024;2022-09-12T07:51:27;9.88;;;7.15;;
31402;SDS011;18039;52.188;21.024;2022-09-12T07:53:56;8.95;;;6.65;;
31402;SDS011;18039;52.188;21.024;2022-09-12T07:56:26;13.32;;;6.78;;
31402;SDS011;18039;52.188;21.024;2022-09-12T07:58:57;11.32;;;6.50;;
31402;SDS011;18039;52.188;21.024;2022-09-12T08:01:24;11.88;;;6.72;;
31402;SDS011;18039;52.188;21.024;2022-09-12T08:03:54;13.98;;;6.60;;
31402;SDS011;18039;52.188;21.024;2022-09-12T08:06:23;11.73;;;6.32;;
31402;SDS011;18039;52.188;21.024;2022-09-12T08:08:53;10.40;;;6.30;;
31402;SDS011;18039;52.188;21.024;2022-09-12T08:11:23;9.52;;;6.40;;
31402;SDS011;18039;52.188;21.024;2022-09-12T08:13:52;10.55;;;6.38;;
31402;SDS011;18039;52.188;21.024;2022-09-12T08:16:26;11.60;;;6.28;;
31402;SDS011;18039;52.188;21.024;2022-09-12T08:18:56;7.03;;;5.72;;
31402;SDS011;18039;52.188;21.024;2022-09-12T08:21:26;11.65;;;5.88;;
31402;SDS011;18039;52.188;21.024;2022-09-12T08:23:59;9.43;;;5.60;;
31402;SDS011;18039;52.188;21.024;2022-09-12T08:26:29;10.25;;;5.63;;
31402;SDS011;18039;52.188;21.024;2022-09-12T08:28:56;9.48;;;5.45;;
31402;SDS011;18039;52.188;21.024;2022-09-12T08:31:23;8.02;;;5.68;;
31402;SDS011;18039;52.188;21.024;2022-09-12T08:33:55;15.45;;;5.68;;
31402;SDS011;18039;52.188;21.024;2022-09-12T08:36:24;10.40;;;4.97;;
31402;SDS011;18039;52.188;21.024;2022-09-12T08:38:58;9.60;;;4.72;;
31402;SDS011;18039;52.188;21.024;2022-09-12T08:41:37;12.57;;;5.53;;
31402;SDS011;18039;52.188;21.024;2022-09-12T08:49:35;11.27;;;5.15;;
31402;SDS011;18039;52.188;21.024;2022-09-12T08:52:24;7.05;;;4.65;;
31402;SDS011;18039;52.188;21.024;2022-09-12T08:54:56;9.15;;;4.85;;
31402;SDS011;18039;52.188;21.024;2022-09-12T08:57:24;7.10;;;5.03;;
31402;SDS011;18039;52.188;21.024;2022-09-12T08:59:51;14.57;;;5.35;;
31402;SDS011;18039;52.188;21.024;2022-09-12T09:02:36;10.32;;;5.15;;
31402;SDS011;18039;52.188;21.024;2022-09-12T09:08:10;8.18;;;4.82;;
31402;SDS011;18039;52.188;21.024;2022-09-12T09:10:50;11.05;;;4.93;;
31402;SDS011;18039;52.188;21.024;2022-09-12T09:16:41;8.57;;;4.63;;
31402;SDS011;18039;52.188;21.024;2022-09-12T09:19:13;6.95;;;4.72;;
31402;SDS011;18039;52.188;21.024;2022-09-12T09:21:49;11.38;;;5.07;;
31402;SDS011;18039;52.188;21.024;2022-09-12T09:24:27;7.20;;;5.00;;
31402;SDS011;18039;52.188;21.024;2022-09-12T09:27:20;6.70;;;5.32;;
31402;SDS011;18039;52.188;21.024;2022-09-12T09:30:13;9.10;;;5.07;;
31402;SDS011;18039;52.188;21.024;2022-09-12T09:32:43;8.38;;;5.13;;
31402;SDS011;18039;52.188;21.024;2022-09-12T09:35:16;6.70;;;4.40;;
31402;SDS011;18039;52.188;21.024;2022-09-12T09:38:32;10.57;;;4.60;;
31402;SDS011;18039;52.188;21.024;2022-09-12T09:43:44;9.63;;;4.32;;
31402;SDS011;18039;52.188;21.024;2022-09-12T09:46:12;10.68;;;4.78;;
31402;SDS011;18039;52.188;21.024;2022-09-12T09:48:40;8.50;;;4.82;;
31402;SDS011;18039;52.188;21.024;2022-09-12T09:51:24;9.05;;;4.55;;
31402;SDS011;18039;52.188;21.024;2022-09-12T09:53:53;8.93;;;4.93;;
31402;SDS011;18039;52.188;21.024;2022-09-12T09:56:33;14.73;;;4.90;;
31402;SDS011;18039;52.188;21.024;2022-09-12T09:59:10;5.90;;;3.63;;
31402;SDS011;18039;52.188;21.024;2022-09-12T10:01:58;11.02;;;4.47;;
31402;SDS011;18039;52.188;21.024;2022-09-12T10:04:30;8.60;;;4.03;;
31402;SDS011;18039;52.188;21.024;2022-09-12T10:07:17;6.57;;;4.15;;
31402;SDS011;18039;52.188;21.024;2022-09-12T10:10:18;8.55;;;3.85;;
31402;SDS011;18039;52.188;21.024;2022-09-12T10:12:43;9.75;;;4.55;;
31402;SDS011;18039;52.188;21.024;2022-09-12T10:15:17;5.95;;;3.90;;
31402;SDS011;18039;52.188;21.024;2022-09-12T10:17:48;7.63;;;4.60;;
31402;SDS011;18039;52.188;21.024;2022-09-12T10:22:59;8.35;;;4.40;;
31402;SDS011;18039;52.188;21.024;2022-09-12T10:25:52;9.75;;;4.35;;
31402;SDS011;18039;52.188;21.024;2022-09-12T10:28:34;10.23;;;4.30;;
31402;SDS011;18039;52.188;21.024;2022-09-12T10:31:05;6.15;;;4.00;;
31402;SDS011;18039;52.188;21.024;2022-09-12T10:33:39;10.20;;;5.32;;
31402;SDS011;18039;52.188;21.024;2022-09-12T10:36:13;9.45;;;3.97;;
31402;SDS011;18039;52.188;21.024;2022-09-12T10:38:47;7.82;;;4.43;;
31402;SDS011;18039;52.188;21.024;2022-09-12T10:41:16;10.98;;;4.88;;
31402;SDS011;18039;52.188;21.024;2022-09-12T10:43:44;7.65;;;4.60;;
31402;SDS011;18039;52.188;21.024;2022-09-12T10:48:49;5.13;;;3.90;;
31402;SDS011;18039;52.188;21.024;2022-09-12T10:53:52;9.20;;;3.85;;
31402;SDS011;18039;52.188;21.024;2022-09-12T10:56:29;8.00;;;4.03;;
31402;SDS011;18039;52.188;21.024;2022-09-12T10:59:01;9.63;;;4.55;;
31402;SDS011;18039;52.188;21.024;2022-09-12T11:01:54;14.05;;;4.72;;
31402;SDS011;18039;52.188;21.024;2022-09-12T11:12:50;8.75;;;4.30;;
31402;SDS011;18039;52.188;21.024;2022-09-12T11:30:12;7.30;;;3.92;;
31402;SDS011;18039;52.188;21.024;2022-09-12T11:35:32;10.93;;;4.28;;
31402;SDS011;18039;52.188;21.024;2022-09-12T11:40:55;11.77;;;5.05;;
31402;SDS011;18039;52.188;21.024;2022-09-12T11:48:57;10.82;;;4.10;;
31402;SDS011;18039;52.188;21.024;2022-09-12T11:51:43;17.27;;;5.03;;
31402;SDS011;18039;52.188;21.024;2022-09-12T11:54:29;10.45;;;4.15;;
31402;SDS011;18039;52.188;21.024;2022-09-12T12:03:00;8.98;;;4.50;;
31402;SDS011;18039;52.188;21.024;2022-09-12T12:08:57;11.95;;;3.95;;
31402;SDS011;18039;52.188;21.024;2022-09-12T12:11:28;8.98;;;3.33;;
31402;SDS011;18039;52.188;21.024;2022-09-12T12:14:00;9.15;;;4.10;;
31402;SDS011;18039;52.188;21.024;2022-09-12T12:16:33;10.48;;;4.40;;
31402;SDS011;18039;52.188;21.024;2022-09-12T12:19:29;6.93;;;3.38;;
31402;SDS011;18039;52.188;21.024;2022-09-12T12:22:04;11.13;;;3.97;;
31402;SDS011;18039;52.188;21.024;2022-09-12T12:24:34;5.78;;;3.65;;
31402;SDS011;18039;52.188;21.024;2022-09-12T12:33:50;9.77;;;4.50;;
31402;SDS011;18039;52.188;21.024;2022-09-12T12:38:29;7.82;;;4.25;;
31402;SDS011;18039;52.188;21.024;2022-09-12T12:41:41;7.93;;;4.03;;
31402;SDS011;18039;52.188;21.024;2022-09-12T12:44:45;8.10;;;3.80;;
31402;SDS011;18039;52.188;21.024;2022-09-12T12:47:18;7.50;;;3.35;;
31402;SDS011;18039;52.188;21.024;2022-09-12T12:49:49;5.73;;;3.63;;
31402;SDS011;18039;52.188;21.024;2022-09-12T12:52:24;4.93;;;3.20;;
31402;SDS011;18039;52.188;21.024;2022-09-12T12:54:56;8.43;;;3.40;;
31402;SDS011;18039;52.188;21.024;2022-09-12T13:00:00;9.15;;;3.47;;
31402;SDS011;18039;52.188;21.024;2022-09-12T13:02:37;7.82;;;3.53;;
31402;SDS011;18039;52.188;21.024;2022-09-12T13:05:19;5.75;;;3.33;;
31402;SDS011;18039;52.188;21.024;2022-09-12T13:08:03;4.43;;;3.35;;
31402;SDS011;18039;52.188;21.024;2022-09-12T13:10:36;9.07;;;3.55;;
31402;SDS011;18039;52.188;21.024;2022-09-12T13:13:05;6.03;;;3.00;;
31402;SDS011;18039;52.188;21.024;2022-09-12T13:18:22;10.55;;;3.35;;
31402;SDS011;18039;52.188;21.024;2022-09-12T13:21:08;4.20;;;3.13;;
31402;SDS011;18039;52.188;21.024;2022-09-12T13:23:37;4.45;;;3.08;;
31402;SDS011;18039;52.188;21.024;2022-09-12T13:26:12;4.50;;;2.97;;
31402;SDS011;18039;52.188;21.024;2022-09-12T13:28:47;4.40;;;3.00;;
31402;SDS011;18039;52.188;21.024;2022-09-12T13:33:56;5.22;;;3.17;;
31402;SDS011;18039;52.188;21.024;2022-09-12T13:39:28;6.90;;;4.03;;
31402;SDS011;18039;52.188;21.024;2022-09-12T13:47:35;4.35;;;2.58;;
31402;SDS011;18039;52.188;21.024;2022-09-12T13:50:07;5.15;;;3.22;;
31402;SDS011;18039;52.188;21.024;2022-09-12T13:52:45;11.63;;;3.85;;
31402;SDS011;18039;52.188;21.024;2022-09-12T13:55:29;5.50;;;2.83;;
31402;SDS011;18039;52.188;21.024;2022-09-12T13:58:00;5.32;;;2.67;;
31402;SDS011;18039;52.188;21.024;2022-09-12T14:00:30;7.33;;;3.20;;
31402;SDS011;18039;52.188;21.024;2022-09-12T14:03:01;5.57;;;3.75;;
31402;SDS011;18039;52.188;21.024;2022-09-12T14:06:02;4.83;;;2.97;;
31402;SDS011;18039;52.188;21.024;2022-09-12T14:08:30;7.00;;;3.83;;
31402;SDS011;18039;52.188;21.024;2022-09-12T14:10:58;4.40;;;3.08;;
31402;SDS011;18039;52.188;21.024;2022-09-12T14:13:26;3.97;;;2.70;;
31402;SDS011;18039;52.188;21.024;2022-09-12T14:15:54;5.57;;;2.80;;
31402;SDS011;18039;52.188;21.024;2022-09-12T14:20:57;6.18;;;3.47;;
31402;SDS011;18039;52.188;21.024;2022-09-12T14:23:45;4.20;;;2.65;;
31402;SDS011;18039;52.188;21.024;2022-09-12T14:26:14;7.15;;;3.13;;
31402;SDS011;18039;52.188;21.024;2022-09-12T14:28:44;4.20;;;2.50;;
31402;SDS011;18039;52.188;21.024;2022-09-12T14:34:18;3.63;;;2.87;;
31402;SDS011;18039;52.188;21.024;2022-09-12T14:36:48;5.97;;;3.45;;
31402;SDS011;18039;52.188;21.024;2022-09-12T14:39:22;4.53;;;3.10;;
31402;SDS011;18039;52.188;21.024;2022-09-12T14:42:01;7.80;;;4.25;;
31402;SDS011;18039;52.188;21.024;2022-09-12T14:44:32;5.20;;;3.60;;
31402;SDS011;18039;52.188;21.024;2022-09-12T14:47:17;6.57;;;3.17;;
31402;SDS011;18039;52.188;21.024;2022-09-12T14:49:48;5.07;;;2.92;;
31402;SDS011;18039;52.188;21.024;2022-09-12T15:00:12;6.85;;;3.60;;
31402;SDS011;18039;52.188;21.024;2022-09-12T15:02:49;7.07;;;2.90;;
31402;SDS011;18039;52.188;21.024;2022-09-12T15:05:19;10.48;;;3.78;;
31402;SDS011;18039;52.188;21.024;2022-09-12T15:10:27;6.35;;;3.08;;
31402;SDS011;18039;52.188;21.024;2022-09-12T15:15:43;6.78;;;3.75;;
31402;SDS011;18039;52.188;21.024;2022-09-12T15:18:13;5.93;;;3.67;;
31402;SDS011;18039;52.188;21.024;2022-09-12T15:20:41;8.23;;;3.65;;
31402;SDS011;18039;52.188;21.024;2022-09-12T15:23:11;11.18;;;4.43;;
31402;SDS011;18039;52.188;21.024;2022-09-12T15:25:44;5.43;;;3.83;;
31402;SDS011;18039;52.188;21.024;2022-09-12T15:28:12;6.75;;;3.38;;
31402;SDS011;18039;52.188;21.024;2022-09-12T15:30:43;4.60;;;3.05;;
31402;SDS011;18039;52.188;21.024;2022-09-12T15:33:10;5.65;;;3.70;;
31402;SDS011;18039;52.188;21.024;2022-09-12T15:35:37;6.28;;;3.40;;
31402;SDS011;18039;52.188;21.024;2022-09-12T15:38:04;9.82;;;4.18;;
31402;SDS011;18039;52.188;21.024;2022-09-12T15:40:32;6.53;;;3.92;;
31402;SDS011;18039;52.188;21.024;2022-09-12T15:42:59;8.55;;;4.40;;
31402;SDS011;18039;52.188;21.024;2022-09-12T15:45:27;8.82;;;4.25;;
31402;SDS011;18039;52.188;21.024;2022-09-12T15:47:56;8.50;;;4.68;;
31402;SDS011;18039;52.188;21.024;2022-09-12T15:50:24;9.02;;;4.43;;
31402;SDS011;18039;52.188;21.024;2022-09-12T15:52:51;7.55;;;4.50;;
31402;SDS011;18039;52.188;21.024;2022-09-12T15:55:23;6.13;;;4.55;;
31402;SDS011;18039;52.188;21.024;2022-09-12T15:57:55;9.25;;;5.00;;
31402;SDS011;18039;52.188;21.024;2022-09-12T16:00:22;9.23;;;4.45;;
31402;SDS011;18039;52.188;21.024;2022-09-12T16:02:51;11.40;;;5.05;;
31402;SDS011;18039;52.188;21.024;2022-09-12T16:05:23;9.52;;;4.90;;
31402;SDS011;18039;52.188;21.024;2022-09-12T16:07:52;6.97;;;4.57;;
31402;SDS011;18039;52.188;21.024;2022-09-12T16:10:21;6.05;;;4.22;;
31402;SDS011;18039;52.188;21.024;2022-09-12T16:12:50;7.05;;;4.75;;
31402;SDS011;18039;52.188;21.024;2022-09-12T16:15:19;9.80;;;5.10;;
31402;SDS011;18039;52.188;21.024;2022-09-12T16:17:48;6.22;;;4.78;;
31402;SDS011;18039;52.188;21.024;2022-09-12T16:20:16;7.28;;;5.25;;
31402;SDS011;18039;52.188;21.024;2022-09-12T16:22:45;9.63;;;5.28;;
31402;SDS011;18039;52.188;21.024;2022-09-12T16:25:12;7.78;;;5.10;;
31402;SDS011;18039;52.188;21.024;2022-09-12T16:27:39;7.10;;;5.00;;
31402;SDS011;18039;52.188;21.024;2022-09-12T16:30:07;7.40;;;5.00;;
31402;SDS011;18039;52.188;21.024;2022-09-12T16:32:35;10.68;;;5.50;;
31402;SDS011;18039;52.188;21.024;2022-09-12T16:35:02;8.25;;;5.47;;
31402;SDS011;18039;52.188;21.024;2022-09-12T16:37:30;10.73;;;6.03;;
31402;SDS011;18039;52.188;21.024;2022-09-12T16:40:00;11.05;;;5.47;;
31402;SDS011;18039;52.188;21.024;2022-09-12T16:44:58;10.93;;;5.28;;
31402;SDS011;18039;52.188;21.024;2022-09-12T16:47:25;9.82;;;5.80;;
31402;SDS011;18039;52.188;21.024;2022-09-12T16:49:52;7.32;;;5.30;;
31402;SDS011;18039;52.188;21.024;2022-09-12T16:52:19;11.52;;;6.03;;
31402;SDS011;18039;52.188;21.024;2022-09-12T16:54:46;12.02;;;5.55;;
31402;SDS011;18039;52.188;21.024;2022-09-12T16:57:14;8.25;;;5.15;;
31402;SDS011;18039;52.188;21.024;2022-09-12T16:59:41;8.15;;;4.93;;
31402;SDS011;18039;52.188;21.024;2022-09-12T17:02:11;13.57;;;6.28;;
31402;SDS011;18039;52.188;21.024;2022-09-12T17:04:39;10.10;;;6.05;;
31402;SDS011;18039;52.188;21.024;2022-09-12T17:07:07;9.52;;;5.63;;
31402;SDS011;18039;52.188;21.024;2022-09-12T17:09:34;7.22;;;5.13;;
31402;SDS011;18039;52.188;21.024;2022-09-12T17:12:02;8.75;;;4.93;;
31402;SDS011;18039;52.188;21.024;2022-09-12T17:14:29;8.98;;;5.20;;
31402;SDS011;18039;52.188;21.024;2022-09-12T17:16:56;13.70;;;5.72;;
31402;SDS011;18039;52.188;21.024;2022-09-12T17:19:24;10.38;;;6.60;;